createdAt,value
2023-05-25T00:02:09.580Z,83.18
2023-05-25T00:05:01.099Z,83.15
2023-05-25T00:07:49.572Z,83.53
2023-05-25T00:10:38.211Z,84.27
2023-05-25T00:13:26.854Z,84.49
2023-05-25T00:16:15.819Z,84.89
2023-05-25T00:19:05.765Z,84.89
2023-05-25T00:21:55.682Z,85.65
2023-05-25T00:24:44.237Z,85.86
2023-05-25T00:27:32.976Z,85.88
2023-05-25T00:30:21.753Z,86.24
2023-05-25T00:33:10.650Z,86.71
2023-05-25T00:36:00.168Z,86.49
2023-05-25T00:38:50.018Z,86.16
2023-05-25T00:41:41.495Z,86.47
2023-05-25T00:44:32.114Z,87.17
2023-05-25T00:47:20.732Z,88.16
2023-05-25T00:50:11.130Z,88.16
2023-05-25T00:52:59.610Z,87.84
2023-05-25T00:55:51.836Z,88.27
2023-05-25T00:58:41.455Z,89.08
2023-05-25T01:01:33.387Z,89.18
2023-05-25T01:04:22.961Z,89.10
2023-05-25T01:07:12.896Z,89.94
2023-05-25T01:10:03.637Z,90.06
2023-05-25T01:12:54.604Z,90.59
2023-05-25T01:15:43.357Z,90.68
2023-05-25T01:18:33.641Z,90.71
2023-05-25T01:21:28.975Z,91.05
2023-05-25T01:24:22.415Z,91.13
2023-05-25T01:27:17.214Z,91.17
2023-05-25T01:30:07.938Z,90.74
2023-05-25T01:32:57.104Z,91.04
2023-05-25T01:35:47.069Z,92.03
2023-05-25T01:38:38.589Z,91.64
2023-05-25T01:41:27.431Z,91.43
2023-05-25T01:44:16.144Z,92.46
2023-05-25T01:47:07.106Z,93.05
2023-05-25T01:50:01.821Z,93.28
2023-05-25T01:52:55.069Z,93.84
2023-05-25T01:55:50.675Z,94.21
2023-05-25T01:58:41.012Z,94.25
2023-05-25T02:01:30.169Z,93.49
2023-05-25T02:04:18.908Z,94.66
2023-05-25T02:07:07.442Z,93.86
2023-05-25T02:09:55.889Z,93.92
2023-05-25T02:12:45.821Z,94.83
2023-05-25T02:15:35.161Z,95.11
2023-05-25T02:18:23.710Z,95.57
2023-05-25T02:21:12.368Z,94.85
2023-05-25T02:24:01.624Z,95.26
2023-05-25T02:26:50.074Z,94.94
2023-05-25T02:29:40.508Z,94.94
2023-05-25T02:32:29.483Z,94.98
2023-05-25T02:35:18.217Z,95.49
2023-05-25T02:38:07.490Z,94.44
2023-05-25T02:40:56.039Z,94.77
2023-05-25T02:43:44.553Z,95.70
2023-05-25T02:46:34.711Z,96.72
2023-05-25T02:49:23.293Z,96.83
2023-05-25T02:52:11.974Z,96.34
2023-05-25T02:55:01.013Z,96.78
2023-05-25T02:57:49.906Z,97.60
2023-05-25T03:00:39.440Z,97.24
2023-05-25T03:03:29.775Z,98.02
2023-05-25T03:06:18.336Z,97.67
2023-05-25T03:09:07.337Z,97.57
2023-05-25T03:11:55.821Z,97.45
2023-05-25T03:14:44.268Z,98.02
2023-05-25T03:17:32.822Z,98.32
2023-05-25T03:20:24.590Z,98.36
2023-05-25T03:23:13.214Z,98.41
2023-05-25T03:26:01.739Z,98.42
2023-05-25T03:28:50.795Z,98.74
2023-05-25T03:31:39.345Z,99.10
2023-05-25T03:34:28.228Z,99.83
2023-05-25T03:37:18.581Z,99.25
2023-05-25T03:40:09.434Z,99.69
2023-05-25T03:42:58.418Z,100.00
2023-05-25T03:45:47.213Z,100.00
2023-05-25T03:48:36.032Z,99.21
2023-05-25T03:51:24.501Z,99.83
2023-05-25T03:54:14.369Z,99.48
2023-05-25T03:57:03.730Z,98.95
2023-05-25T03:59:52.252Z,98.93
2023-05-25T04:02:40.994Z,99.37
2023-05-25T04:05:29.547Z,98.99
2023-05-25T04:08:18.882Z,99.02
2023-05-25T04:11:08.786Z,99.43
2023-05-25T04:13:57.276Z,100.00
2023-05-25T04:16:46.064Z,98.93
2023-05-25T04:19:34.738Z,99.07
2023-05-25T04:22:23.387Z,99.50
2023-05-25T04:25:12.032Z,99.70
2023-05-25T04:28:01.872Z,99.39
2023-05-25T04:30:51.236Z,97.52
2023-05-25T04:33:40.743Z,98.69
2023-05-25T04:36:29.743Z,97.30
2023-05-25T04:39:18.662Z,97.14
2023-05-25T04:42:08.300Z,96.59
2023-05-25T04:44:59.009Z,97.44
2023-05-25T04:47:47.553Z,96.85
2023-05-25T04:50:37.377Z,96.64
2023-05-25T04:53:25.872Z,96.47
2023-05-25T04:56:14.386Z,96.50
2023-05-25T04:59:04.357Z,96.66
2023-05-25T05:01:54.357Z,95.94
2023-05-25T05:04:42.981Z,95.89
2023-05-25T05:07:31.651Z,95.62
2023-05-25T05:10:20.268Z,95.52
2023-05-25T05:13:08.850Z,94.92
2023-05-25T05:15:57.350Z,93.68
2023-05-25T05:18:47.275Z,93.63
2023-05-25T05:21:35.803Z,91.98
2023-05-25T05:24:24.524Z,89.98
2023-05-25T05:27:14.618Z,88.36
2023-05-25T05:30:03.506Z,84.85
2023-05-25T05:32:52.037Z,82.57
2023-05-25T05:35:42.021Z,80.93
2023-05-25T05:38:30.879Z,78.60
2023-05-25T05:41:19.439Z,77.72
2023-05-25T05:44:08.013Z,76.03
2023-05-25T05:47:00.320Z,75.48
2023-05-25T05:49:49.539Z,74.90
2023-05-25T05:52:39.456Z,75.36
2023-05-25T05:55:27.990Z,72.90
2023-05-25T05:58:16.549Z,73.80
2023-05-25T06:01:09.031Z,72.39
2023-05-25T06:03:57.649Z,72.40
2023-05-25T06:06:46.287Z,71.65
2023-05-25T06:09:36.116Z,70.76
2023-05-25T06:12:24.667Z,70.86
2023-05-25T06:15:13.359Z,70.20
2023-05-25T06:18:01.911Z,70.07
2023-05-25T06:20:50.820Z,68.61
2023-05-25T06:23:39.373Z,68.58
2023-05-25T06:26:29.496Z,68.08
2023-05-25T06:29:18.035Z,68.85
2023-05-25T06:32:07.179Z,68.17
2023-05-25T06:34:55.951Z,67.57
2023-05-25T06:37:44.594Z,67.45
2023-05-25T06:40:33.120Z,66.70
2023-05-25T06:43:23.012Z,66.47
2023-05-25T06:46:13.678Z,67.04
2023-05-25T06:49:02.416Z,64.90
2023-05-25T06:51:51.213Z,64.16
2023-05-25T06:54:39.755Z,64.33
2023-05-25T06:57:28.290Z,64.65
2023-05-25T07:00:19.775Z,63.88
2023-05-25T07:03:08.326Z,63.81
2023-05-25T07:05:57.017Z,62.26
2023-05-25T07:08:45.721Z,61.28
2023-05-25T07:11:34.479Z,61.92
2023-05-25T07:14:23.002Z,61.94
2023-05-25T07:17:12.902Z,60.88
2023-05-25T07:20:01.470Z,61.10
2023-05-25T07:22:50.120Z,60.73
2023-05-25T07:25:39.777Z,61.14
2023-05-25T07:28:28.700Z,59.81
2023-05-25T07:31:17.668Z,60.01
2023-05-25T07:34:07.535Z,58.69
2023-05-25T07:36:56.105Z,58.07
2023-05-25T07:39:44.874Z,57.65
2023-05-25T07:42:34.530Z,57.73
2023-05-25T07:45:23.639Z,57.23
2023-05-25T07:48:12.191Z,57.33
2023-05-25T07:51:02.139Z,57.06
2023-05-25T07:53:52.335Z,56.45
2023-05-25T07:56:40.996Z,56.96
2023-05-25T07:59:29.540Z,56.09
2023-05-25T08:02:18.470Z,56.18
2023-05-25T08:05:08.044Z,57.11
2023-05-25T08:07:58.254Z,55.27
2023-05-25T08:10:46.805Z,55.58
2023-05-25T08:13:35.582Z,54.87
2023-05-25T08:16:24.220Z,55.74
2023-05-25T08:19:12.916Z,56.04
2023-05-25T08:22:01.384Z,56.55
2023-05-25T08:24:51.331Z,55.36
2023-05-25T08:27:40.119Z,56.06
2023-05-25T08:30:29.191Z,55.62
2023-05-25T08:33:18.007Z,55.16
2023-05-25T08:36:09.176Z,55.72
2023-05-25T08:38:57.740Z,56.49
2023-05-25T08:41:47.719Z,56.70
2023-05-25T08:44:36.896Z,56.94
2023-05-25T08:47:25.425Z,56.52
2023-05-25T08:50:14.059Z,56.22
2023-05-25T08:53:04.648Z,55.66
2023-05-25T08:55:55.134Z,55.08
2023-05-25T08:58:47.866Z,55.09
2023-05-25T09:01:44.531Z,53.94
2023-05-25T09:04:35.714Z,54.25
2023-05-25T09:07:24.865Z,53.55
2023-05-25T09:10:13.593Z,53.87
2023-05-25T09:13:16.690Z,52.87
2023-05-25T09:16:11.157Z,52.63
2023-05-25T09:18:59.805Z,53.06
2023-05-25T09:21:48.322Z,52.82
2023-05-25T09:24:37.420Z,52.80
2023-05-25T09:27:26.995Z,53.92
2023-05-25T09:30:15.653Z,52.24
2023-05-25T09:33:12.784Z,51.78
2023-05-25T09:36:01.419Z,50.70
2023-05-25T09:38:50.533Z,51.29
2023-05-25T09:41:39.978Z,51.25
2023-05-25T09:44:28.574Z,50.81
2023-05-25T09:47:18.249Z,49.62
2023-05-25T09:50:09.669Z,50.61
2023-05-25T09:53:00.173Z,49.44
2023-05-25T09:55:53.938Z,48.94
2023-05-25T09:58:44.772Z,48.95
2023-05-25T10:01:34.012Z,48.29
2023-05-25T10:04:25.153Z,47.31
2023-05-25T10:07:16.077Z,46.94
2023-05-25T10:10:07.891Z,46.56
2023-05-25T10:12:57.445Z,46.95
2023-05-25T10:15:46.799Z,47.28
2023-05-25T10:18:37.250Z,46.01
2023-05-25T10:21:26.755Z,46.15
2023-05-25T10:24:24.104Z,45.46
2023-05-25T10:30:15.606Z,45.62
2023-05-25T10:33:04.505Z,47.37
2023-05-25T10:36:09.460Z,47.84
2023-05-25T10:38:59.827Z,47.18
2023-05-25T10:41:50.028Z,46.48
2023-05-25T10:44:39.712Z,46.28
2023-05-25T10:47:28.609Z,44.79
2023-05-25T10:50:21.777Z,44.71
2023-05-25T10:53:13.979Z,44.15
2023-05-25T10:56:03.533Z,45.96
2023-05-25T10:58:54.035Z,45.32
2023-05-25T11:01:51.570Z,44.63
2023-05-25T11:04:40.321Z,44.13
2023-05-25T11:07:28.873Z,44.53
2023-05-25T11:10:17.530Z,42.85
2023-05-25T11:13:24.159Z,44.31
2023-05-25T11:16:22.088Z,43.77
2023-05-25T11:19:16.191Z,43.13
2023-05-25T11:22:14.326Z,43.67
2023-05-25T11:25:25.492Z,43.06
2023-05-25T11:28:14.345Z,42.40
2023-05-25T11:31:03.033Z,43.64
2023-05-25T11:33:57.219Z,43.49
2023-05-25T11:36:45.761Z,43.42
2023-05-25T11:39:34.231Z,43.87
2023-05-25T11:42:24.119Z,42.96
2023-05-25T11:45:13.305Z,43.19
2023-05-25T11:48:01.870Z,42.88
2023-05-25T11:53:46.744Z,43.57
2023-05-25T11:56:36.172Z,43.41
2023-05-25T11:59:27.180Z,42.66
2023-05-25T12:02:16.844Z,43.11
2023-05-25T12:05:08.504Z,43.02
2023-05-25T12:07:58.270Z,42.09
2023-05-25T12:10:53.950Z,42.55
2023-05-25T12:13:42.487Z,43.02
2023-05-25T12:16:31.556Z,42.07
2023-05-25T12:19:20.246Z,42.64
2023-05-25T12:22:08.844Z,42.12
2023-05-25T12:24:57.392Z,41.75
2023-05-25T12:27:47.238Z,41.51
2023-05-25T12:30:36.087Z,42.55
2023-05-25T12:33:24.638Z,42.95
2023-05-25T12:36:13.240Z,41.84
2023-05-25T12:39:01.729Z,41.64
2023-05-25T12:41:54.323Z,42.25
2023-05-25T12:44:46.396Z,42.04
2023-05-25T12:47:35.147Z,41.75
2023-05-25T12:50:23.824Z,42.67
2023-05-25T12:53:12.308Z,42.45
2023-05-25T12:56:04.572Z,41.54
2023-05-25T12:58:53.082Z,41.71
2023-05-25T13:01:43.664Z,42.53
2023-05-25T13:04:32.273Z,41.68
2023-05-25T13:07:22.679Z,42.39
2023-05-25T13:10:11.809Z,41.76
2023-05-25T13:13:00.647Z,42.07
2023-05-25T13:15:49.350Z,42.09
2023-05-25T13:18:39.228Z,42.20
2023-05-25T13:21:28.269Z,41.61
2023-05-25T13:24:17.429Z,41.91
2023-05-25T13:27:07.070Z,41.41
2023-05-25T13:29:55.606Z,41.19
2023-05-25T13:32:44.627Z,41.94
2023-05-25T13:35:57.731Z,41.38
2023-05-25T13:38:46.357Z,41.59
2023-05-25T13:41:34.871Z,42.16
2023-05-25T13:44:23.497Z,42.04
2023-05-25T13:47:12.048Z,42.00
2023-05-25T13:50:00.614Z,41.66
2023-05-25T13:52:50.417Z,41.73
2023-05-25T13:55:39.106Z,42.75
2023-05-25T13:58:27.616Z,41.56
2023-05-25T14:01:16.437Z,41.20
2023-05-25T14:04:05.544Z,42.44
2023-05-25T14:06:55.494Z,42.66
2023-05-25T14:09:45.654Z,42.53
2023-05-25T14:12:34.242Z,41.79
2023-05-25T14:15:22.783Z,41.38
2023-05-25T14:18:11.375Z,42.13
2023-05-25T14:21:00.137Z,42.11
2023-05-25T14:23:48.684Z,41.50
2023-05-25T14:26:38.570Z,41.71
2023-05-25T14:29:27.093Z,42.67
2023-05-25T14:32:17.092Z,41.48
2023-05-25T14:35:06.276Z,41.24
2023-05-25T14:37:54.739Z,41.65
2023-05-25T14:40:43.270Z,41.90
2023-05-25T14:43:34.642Z,41.61
2023-05-25T14:46:23.260Z,41.80
2023-05-25T14:49:13.541Z,42.30
2023-05-25T14:52:02.143Z,42.76
2023-05-25T14:54:50.680Z,41.60
2023-05-25T14:57:39.269Z,42.69
2023-05-25T15:00:30.973Z,41.88
2023-05-25T15:03:19.707Z,41.70
2023-05-25T15:06:16.239Z,41.99
2023-05-25T15:09:04.906Z,41.21
2023-05-25T15:11:53.494Z,40.82
2023-05-25T15:14:42.441Z,41.52
2023-05-25T15:17:32.515Z,41.88
2023-05-25T15:20:21.250Z,41.59
2023-05-25T15:23:09.826Z,42.17
2023-05-25T15:26:03.030Z,41.45
2023-05-25T15:28:51.548Z,41.73
2023-05-25T15:31:40.148Z,42.64
2023-05-25T15:34:30.061Z,41.85
2023-05-25T15:37:18.609Z,41.21
2023-05-25T15:40:08.594Z,41.26
2023-05-25T15:42:57.173Z,41.49
2023-05-25T15:45:45.993Z,41.83
2023-05-25T15:48:34.687Z,42.08
2023-05-25T15:51:24.570Z,41.95
2023-05-25T15:54:14.585Z,42.75
2023-05-25T15:57:03.749Z,42.65
2023-05-25T15:59:52.398Z,42.65
2023-05-25T16:02:40.987Z,42.84
2023-05-25T16:05:30.102Z,42.66
2023-05-25T16:08:19.975Z,42.02
2023-05-25T16:11:08.992Z,41.88
2023-05-25T16:13:57.509Z,42.14
2023-05-25T16:16:46.156Z,42.22
2023-05-25T16:19:34.833Z,41.98
2023-05-25T16:22:23.372Z,42.40
2023-05-25T16:25:13.229Z,43.26
2023-05-25T16:28:01.997Z,43.47
2023-05-25T16:30:50.796Z,42.75
2023-05-25T16:33:41.896Z,43.45
2023-05-25T16:36:30.475Z,42.09
2023-05-25T16:39:19.015Z,41.98
2023-05-25T16:42:09.047Z,42.66
2023-05-25T16:44:57.611Z,42.05
2023-05-25T16:47:46.235Z,42.95
2023-05-25T16:50:34.752Z,42.67
2023-05-25T16:53:23.261Z,42.41
2023-05-25T16:56:11.759Z,42.73
2023-05-25T16:59:01.678Z,42.86
2023-05-25T17:01:51.146Z,43.19
2023-05-25T17:04:39.756Z,43.03
2023-05-25T17:07:28.813Z,42.70
2023-05-25T17:10:17.617Z,42.67
2023-05-25T17:13:06.176Z,43.01
2023-05-25T17:15:56.124Z,43.32
2023-05-25T17:18:44.637Z,43.57
2023-05-25T17:21:33.154Z,43.11
2023-05-25T17:24:21.725Z,43.94
2023-05-25T17:27:10.315Z,42.94
2023-05-25T17:29:58.833Z,43.16
2023-05-25T17:32:48.760Z,43.43
2023-05-25T17:35:37.277Z,44.03
2023-05-25T17:38:27.509Z,44.37
2023-05-25T17:41:16.262Z,44.70
2023-05-25T17:44:04.808Z,44.04
2023-05-25T17:46:53.356Z,44.43
2023-05-25T17:49:43.250Z,44.35
2023-05-25T17:52:31.831Z,44.40
2023-05-25T17:55:20.928Z,44.77
2023-05-25T17:58:09.714Z,45.40
2023-05-25T18:00:58.377Z,45.54
2023-05-25T18:03:47.030Z,45.87
2023-05-25T18:09:26.098Z,45.90
2023-05-25T18:12:14.850Z,46.52
2023-05-25T18:15:03.388Z,46.87
2023-05-25T18:17:52.025Z,47.33
2023-05-25T18:20:40.935Z,47.71
2023-05-25T18:23:30.990Z,47.76
2023-05-25T18:26:19.518Z,48.08
2023-05-25T18:29:08.680Z,48.72
2023-05-25T18:31:57.172Z,48.96
2023-05-25T18:34:46.050Z,49.32
2023-05-25T18:37:35.753Z,49.52
2023-05-25T18:40:25.734Z,50.05
2023-05-25T18:43:14.337Z,50.01
2023-05-25T18:46:03.021Z,50.36
2023-05-25T18:48:51.618Z,51.06
2023-05-25T18:51:40.188Z,51.81
2023-05-25T18:54:29.587Z,52.37
2023-05-25T18:57:19.757Z,53.79
2023-05-25T19:00:10.237Z,54.57
2023-05-25T19:02:58.832Z,55.52
2023-05-25T19:05:47.433Z,56.15
2023-05-25T19:08:36.016Z,56.29
2023-05-25T19:11:24.584Z,56.57
2023-05-25T19:14:14.520Z,58.28
2023-05-25T19:17:03.060Z,59.05
2023-05-25T19:19:51.616Z,60.16
2023-05-25T19:22:41.702Z,61.86
2023-05-25T19:25:30.305Z,62.67
2023-05-25T19:28:19.427Z,63.10
2023-05-25T19:31:09.407Z,63.69
2023-05-25T19:33:57.979Z,64.03
2023-05-25T19:36:47.143Z,64.41
2023-05-25T19:39:38.130Z,64.78
2023-05-25T19:42:30.090Z,65.93
2023-05-25T19:45:19.356Z,66.23
2023-05-25T19:48:09.349Z,66.48
2023-05-25T19:50:57.941Z,66.36
2023-05-25T19:53:48.965Z,67.46
2023-05-25T19:56:37.547Z,67.82
2023-05-25T19:59:27.984Z,68.39
2023-05-25T20:02:16.862Z,68.40
2023-05-25T20:05:07.135Z,68.78
2023-05-25T20:07:56.258Z,69.24
2023-05-25T20:10:45.166Z,69.75
2023-05-25T20:13:33.909Z,69.97
2023-05-25T20:16:22.579Z,70.43
2023-05-25T20:19:11.663Z,71.04
2023-05-25T20:22:02.506Z,71.60
2023-05-25T20:24:53.205Z,72.53
2023-05-25T20:27:41.770Z,72.66
2023-05-25T20:30:30.404Z,73.05
2023-05-25T20:33:18.935Z,73.78
2023-05-25T20:36:07.632Z,74.17
2023-05-25T20:38:57.477Z,74.62
2023-05-25T20:41:46.032Z,74.99
2023-05-25T20:44:34.567Z,75.29
2023-05-25T20:47:23.075Z,75.66
2023-05-25T20:50:11.853Z,76.10
2023-05-25T20:53:00.399Z,77.00
2023-05-25T20:55:50.374Z,77.32
2023-05-25T20:58:39.681Z,78.47
2023-05-25T21:01:29.260Z,79.32
2023-05-25T21:04:17.992Z,79.58
2023-05-25T21:07:06.646Z,80.17
2023-05-25T21:09:56.494Z,80.45
2023-05-25T21:12:46.469Z,81.32
2023-05-25T21:15:35.033Z,81.83
2023-05-25T21:18:23.589Z,81.99
2023-05-25T21:21:12.273Z,82.37
2023-05-25T21:24:01.293Z,82.84
2023-05-25T21:26:49.788Z,83.14
2023-05-25T21:29:40.468Z,83.21
2023-05-25T21:32:29.019Z,83.84
2023-05-25T21:35:18.103Z,83.94
2023-05-25T21:38:06.705Z,83.96
2023-05-25T21:40:55.447Z,84.12
2023-05-25T21:43:44.197Z,84.74
2023-05-25T21:46:34.139Z,85.03
2023-05-25T21:49:22.705Z,84.98
2023-05-25T21:52:11.309Z,85.80
2023-05-25T21:54:59.919Z,85.79
2023-05-25T21:57:48.443Z,85.90
2023-05-25T22:00:37.759Z,86.03
2023-05-25T22:03:27.934Z,86.74
2023-05-25T22:06:16.593Z,87.04
2023-05-25T22:09:05.378Z,87.73
2023-05-25T22:11:53.906Z,88.16
2023-05-25T22:14:42.414Z,89.11
2023-05-25T22:17:31.282Z,88.58
2023-05-25T22:20:21.186Z,88.70
2023-05-25T22:23:11.894Z,88.83
2023-05-25T22:26:00.399Z,89.94
2023-05-25T22:28:48.882Z,90.49
2023-05-25T22:31:37.429Z,90.35
2023-05-25T22:34:26.090Z,90.25
2023-05-25T22:37:17.350Z,90.85
2023-05-25T22:40:06.859Z,91.22
2023-05-25T22:42:55.545Z,92.30
2023-05-25T22:45:44.363Z,92.86
2023-05-25T22:48:32.999Z,93.00
2023-05-25T22:51:21.491Z,92.91
2023-05-25T22:54:11.306Z,92.89
2023-05-25T22:56:59.823Z,93.25
2023-05-25T22:59:48.358Z,93.15
2023-05-25T23:02:36.952Z,93.50
2023-05-25T23:05:25.696Z,94.03
2023-05-25T23:08:14.235Z,94.32
2023-05-25T23:11:04.137Z,94.44
2023-05-25T23:13:54.620Z,94.88
2023-05-25T23:16:44.280Z,95.00
2023-05-25T23:19:32.860Z,95.15
2023-05-25T23:22:21.509Z,95.50
2023-05-25T23:25:10.988Z,96.01
2023-05-25T23:28:00.830Z,96.41
2023-05-25T23:30:49.327Z,96.65
2023-05-25T23:33:38.101Z,97.58
2023-05-25T23:36:28.234Z,97.25
2023-05-25T23:39:17.195Z,97.40
2023-05-25T23:42:07.201Z,97.02
2023-05-25T23:44:57.040Z,97.09
2023-05-25T23:47:45.655Z,96.59
2023-05-25T23:50:34.875Z,96.92
2023-05-25T23:53:23.367Z,97.73
2023-05-25T23:56:11.921Z,98.32
2023-05-25T23:59:00.462Z,98.51
